createdAt,value
2022-08-02T00:00:57.465Z,2.40
2022-08-02T00:03:24.799Z,2.30
2022-08-02T00:05:53.701Z,2.20
2022-08-02T00:08:22.482Z,2.10
2022-08-02T00:10:49.965Z,2.25
2022-08-02T00:13:17.008Z,2.13
2022-08-02T00:15:44.208Z,2.03
2022-08-02T00:18:11.298Z,2.00
2022-08-02T00:20:38.442Z,1.85
2022-08-02T00:23:05.553Z,2.50
2022-08-02T00:25:32.533Z,2.20
2022-08-02T00:27:59.527Z,1.77
2022-08-02T00:30:26.568Z,2.10
2022-08-02T00:32:53.656Z,2.17
2022-08-02T00:35:20.936Z,2.10
2022-08-02T00:37:48.117Z,2.00
2022-08-02T00:40:15.463Z,2.40
2022-08-02T00:42:44.243Z,1.73
2022-08-02T00:45:11.479Z,1.52
2022-08-02T00:47:38.588Z,1.90
2022-08-02T00:50:06.487Z,1.75
2022-08-02T00:52:33.660Z,1.95
2022-08-02T00:55:00.731Z,1.80
2022-08-02T00:57:27.766Z,1.92
2022-08-02T00:59:54.726Z,1.65
2022-08-02T01:02:21.787Z,1.80
2022-08-02T01:04:48.864Z,1.83
2022-08-02T01:07:16.005Z,1.73
2022-08-02T01:09:45.082Z,1.90
2022-08-02T01:12:13.187Z,1.50
2022-08-02T01:14:50.942Z,1.70
2022-08-02T01:17:58.826Z,1.90
2022-08-02T01:20:58.126Z,1.60
2022-08-02T01:23:43.132Z,1.70
2022-08-02T01:26:37.467Z,1.30
2022-08-02T01:29:17.075Z,1.60
2022-08-02T01:32:02.059Z,1.70
2022-08-02T01:34:46.254Z,1.92
2022-08-02T01:37:32.393Z,1.60
2022-08-02T01:40:09.648Z,1.33
2022-08-02T01:42:40.612Z,1.50
2022-08-02T01:45:10.335Z,1.63
2022-08-02T01:47:40.753Z,1.45
2022-08-02T01:50:12.096Z,1.17
2022-08-02T01:52:53.544Z,1.45
2022-08-02T01:55:35.068Z,1.60
2022-08-02T01:58:23.235Z,1.15
2022-08-02T02:00:51.408Z,1.35
2022-08-02T02:03:24.717Z,1.40
2022-08-02T02:05:57.794Z,1.27
2022-08-02T02:08:32.484Z,1.40
2022-08-02T02:12:06.024Z,1.27
2022-08-02T02:13:50.800Z,1.40
2022-08-02T02:16:22.065Z,1.20
2022-08-02T02:18:49.996Z,1.55
2022-08-02T02:21:17.270Z,1.30
2022-08-02T02:23:44.444Z,1.63
2022-08-02T02:26:16.822Z,1.30
2022-08-02T02:28:58.449Z,1.30
2022-08-02T02:31:27.184Z,1.83
2022-08-02T02:34:03.061Z,1.52
2022-08-02T02:36:33.342Z,1.30
2022-08-02T02:39:11.602Z,1.50
2022-08-02T02:41:43.492Z,1.58
2022-08-02T02:44:18.479Z,1.17
2022-08-02T02:46:46.832Z,1.27
2022-08-02T02:49:16.284Z,1.27
2022-08-02T02:51:44.455Z,1.30
2022-08-02T02:54:30.589Z,1.40
2022-08-02T02:57:02.830Z,1.65
2022-08-02T02:59:30.382Z,1.63
2022-08-02T03:01:58.880Z,1.20
2022-08-02T03:04:55.957Z,1.40
2022-08-02T03:07:16.767Z,1.40
2022-08-02T03:09:44.093Z,1.40
2022-08-02T03:12:11.812Z,1.50
2022-08-02T03:14:45.547Z,1.20
2022-08-02T03:17:16.769Z,1.25
2022-08-02T03:19:45.513Z,1.33
2022-08-02T03:22:15.711Z,1.10
2022-08-02T03:24:42.791Z,1.40
2022-08-02T03:27:09.820Z,1.40
2022-08-02T03:29:36.911Z,1.38
2022-08-02T03:32:04.558Z,1.30
2022-08-02T03:34:31.861Z,1.50
2022-08-02T03:36:59.728Z,1.55
2022-08-02T03:39:27.955Z,1.73
2022-08-02T03:41:55.974Z,1.50
2022-08-02T03:44:24.263Z,1.35
2022-08-02T03:46:53.031Z,1.40
2022-08-02T03:49:21.961Z,1.65
2022-08-02T03:51:49.405Z,1.30
2022-08-02T03:54:18.796Z,1.40
2022-08-02T03:56:46.516Z,1.30
2022-08-02T03:59:15.218Z,1.63
2022-08-02T04:01:42.795Z,1.80
2022-08-02T04:04:10.434Z,1.48
2022-08-02T04:06:40.162Z,1.52
2022-08-02T04:09:09.649Z,1.63
2022-08-02T04:11:37.977Z,2.00
2022-08-02T04:14:11.100Z,1.70
2022-08-02T04:17:08.606Z,1.30
2022-08-02T04:19:50.937Z,1.60
2022-08-02T04:22:27.470Z,1.45
2022-08-02T04:28:15.571Z,1.60
2022-08-02T04:30:21.378Z,2.00
2022-08-02T04:32:48.429Z,1.20
2022-08-02T04:35:20.159Z,1.58
2022-08-02T04:38:08.521Z,1.20
2022-08-02T04:40:36.367Z,1.50
2022-08-02T04:43:03.614Z,1.20
2022-08-02T04:45:31.618Z,1.80
2022-08-02T04:48:06.521Z,1.42
2022-08-02T04:50:34.755Z,1.73
2022-08-02T04:53:01.943Z,1.38
2022-08-02T04:55:30.058Z,1.70
2022-08-02T04:57:58.948Z,1.50
2022-08-02T05:00:29.849Z,2.20
2022-08-02T05:02:58.032Z,1.70
2022-08-02T05:05:26.126Z,1.20
2022-08-02T05:07:53.283Z,2.30
2022-08-02T05:10:20.998Z,1.50
2022-08-02T05:12:48.234Z,1.70
2022-08-02T05:15:18.316Z,2.10
2022-08-02T05:17:48.541Z,2.00
2022-08-02T05:20:19.642Z,2.08
2022-08-02T05:22:47.289Z,2.00
2022-08-02T05:25:15.205Z,2.80
2022-08-02T05:27:42.662Z,1.83
2022-08-02T05:30:10.400Z,1.98
2022-08-02T05:32:47.307Z,1.95
2022-08-02T05:35:17.304Z,1.58
2022-08-02T05:37:44.274Z,2.33
2022-08-02T05:40:16.591Z,2.15
2022-08-02T05:42:44.259Z,1.40
2022-08-02T05:45:11.988Z,1.60
2022-08-02T05:47:39.670Z,1.83
2022-08-02T05:50:08.392Z,1.77
2022-08-02T05:53:02.608Z,1.67
2022-08-02T05:55:38.208Z,2.22
2022-08-02T05:58:31.351Z,1.70
2022-08-02T06:01:02.857Z,2.10
2022-08-02T06:03:43.515Z,2.30
2022-08-02T06:06:17.754Z,1.65
2022-08-02T06:08:49.391Z,1.85
2022-08-02T06:11:22.188Z,1.45
2022-08-02T06:13:49.676Z,1.40
2022-08-02T06:16:18.057Z,2.10
2022-08-02T06:19:01.242Z,1.52
2022-08-02T06:22:32.851Z,1.60
2022-08-02T06:24:19.951Z,1.83
2022-08-02T06:26:52.943Z,2.17
2022-08-02T06:29:23.332Z,1.50
2022-08-02T06:31:53.491Z,2.40
2022-08-02T06:34:20.826Z,1.85
2022-08-02T06:37:07.547Z,1.50
2022-08-02T06:39:47.860Z,1.60
2022-08-02T06:42:33.817Z,1.60
2022-08-02T06:45:00.908Z,1.95
2022-08-02T06:47:28.682Z,1.50
2022-08-02T06:49:58.556Z,2.22
2022-08-02T06:52:29.729Z,1.80
2022-08-02T06:55:02.662Z,1.95
2022-08-02T06:57:31.092Z,2.30
2022-08-02T07:00:02.673Z,1.85
2022-08-02T07:02:31.527Z,2.10
2022-08-02T07:04:59.127Z,1.73
2022-08-02T07:07:28.027Z,1.50
2022-08-02T07:10:00.922Z,1.42
2022-08-02T07:12:34.384Z,1.73
2022-08-02T07:15:06.046Z,1.48
2022-08-02T07:17:34.215Z,1.17
2022-08-02T07:20:01.818Z,1.55
2022-08-02T07:22:29.575Z,1.42
2022-08-02T07:24:58.911Z,1.20
2022-08-02T07:27:27.175Z,1.70
2022-08-02T07:29:55.556Z,1.77
2022-08-02T07:32:26.409Z,1.60
2022-08-02T07:34:55.977Z,1.40
2022-08-02T07:37:53.027Z,2.17
2022-08-02T07:40:19.895Z,1.58
2022-08-02T07:42:56.393Z,2.10
2022-08-02T07:45:26.520Z,1.70
2022-08-02T07:47:53.745Z,1.88
2022-08-02T07:50:21.807Z,1.83
2022-08-02T07:52:50.050Z,1.73
2022-08-02T07:55:24.705Z,1.52
2022-08-02T07:58:07.062Z,1.38
2022-08-02T08:00:38.381Z,1.55
2022-08-02T08:03:06.365Z,1.67
2022-08-02T08:05:34.001Z,1.05
2022-08-02T08:08:01.028Z,1.45
2022-08-02T08:10:28.526Z,1.58
2022-08-02T08:12:56.855Z,1.67
2022-08-02T08:15:23.867Z,1.45
2022-08-02T08:17:50.903Z,1.25
2022-08-02T08:20:18.658Z,1.50
2022-08-02T08:22:46.425Z,1.67
2022-08-02T08:25:13.431Z,1.35
2022-08-02T08:27:52.344Z,1.40
2022-08-02T08:30:22.036Z,1.20
2022-08-02T08:32:49.579Z,1.00
2022-08-02T08:35:16.664Z,1.75
2022-08-02T08:37:44.064Z,1.50
2022-08-02T08:40:12.593Z,1.30
2022-08-02T08:42:40.473Z,1.40
2022-08-02T08:45:09.196Z,1.27
2022-08-02T08:47:42.350Z,2.38
2022-08-02T08:50:18.887Z,1.33
2022-08-02T08:53:08.380Z,1.17
2022-08-02T08:55:36.641Z,1.60
2022-08-02T08:58:05.368Z,1.80
2022-08-02T09:00:36.357Z,2.38
2022-08-02T09:05:43.518Z,1.73
2022-08-02T09:08:16.337Z,1.48
2022-08-02T09:10:47.363Z,1.33
2022-08-02T09:13:45.130Z,1.17
2022-08-02T09:16:14.773Z,1.30
2022-08-02T09:18:47.117Z,1.23
2022-08-02T09:21:17.183Z,1.30
2022-08-02T09:23:52.612Z,1.30
2022-08-02T09:26:24.603Z,1.48
2022-08-02T09:29:19.455Z,1.35
2022-08-02T09:32:06.960Z,1.23
2022-08-02T09:34:52.445Z,1.40
2022-08-02T09:37:37.566Z,1.98
2022-08-02T09:40:06.949Z,1.38
2022-08-02T09:42:34.850Z,1.30
2022-08-02T09:45:03.220Z,1.67
2022-08-02T09:47:31.355Z,1.35
2022-08-02T09:49:59.129Z,1.27
2022-08-02T09:52:43.026Z,1.30
2022-08-02T09:55:12.801Z,1.08
2022-08-02T09:57:40.186Z,1.05
2022-08-02T10:00:20.404Z,1.00
2022-08-02T10:03:21.490Z,1.38
2022-08-02T10:06:02.560Z,1.52
2022-08-02T10:08:33.846Z,1.30
2022-08-02T10:11:04.010Z,1.38
2022-08-02T10:13:36.728Z,1.20
2022-08-02T10:16:06.304Z,1.20
2022-08-02T10:18:39.320Z,1.20
2022-08-02T10:21:15.316Z,1.80
2022-08-02T10:23:45.152Z,1.27
2022-08-02T10:26:18.576Z,0.90
2022-08-02T10:28:49.665Z,1.27
2022-08-02T10:33:53.033Z,1.10
2022-08-02T10:36:23.708Z,1.25
2022-08-02T10:38:51.188Z,1.27
2022-08-02T10:41:43.003Z,1.20
2022-08-02T10:44:29.268Z,1.40
2022-08-02T10:47:27.735Z,1.58
2022-08-02T10:50:00.467Z,1.20
2022-08-02T10:52:33.567Z,1.05
2022-08-02T10:55:13.503Z,1.05
2022-08-02T11:00:24.869Z,1.15
2022-08-02T11:02:53.860Z,1.20
2022-08-02T11:05:42.797Z,1.35
2022-08-02T11:08:37.294Z,0.82
2022-08-02T11:11:53.811Z,1.20
2022-08-02T11:14:14.899Z,1.15
2022-08-02T11:17:02.807Z,0.60
2022-08-02T11:19:30.024Z,0.90
2022-08-02T11:22:13.775Z,0.85
2022-08-02T11:24:43.189Z,0.77
2022-08-02T11:27:19.145Z,1.00
2022-08-02T11:29:49.734Z,1.77
2022-08-02T11:32:22.317Z,1.00
2022-08-02T11:37:36.449Z,1.00
2022-08-02T11:40:19.743Z,0.88
2022-08-02T11:42:50.833Z,0.93
2022-08-02T11:50:30.112Z,0.90
2022-08-02T11:52:58.469Z,1.27
2022-08-02T11:55:30.916Z,1.30
2022-08-02T11:58:05.428Z,0.65
2022-08-02T12:00:34.319Z,0.85
2022-08-02T12:03:02.018Z,1.08
2022-08-02T12:06:04.963Z,0.90
2022-08-02T12:08:19.195Z,1.02
2022-08-02T12:10:50.947Z,1.00
2022-08-02T12:13:18.019Z,0.98
2022-08-02T12:15:47.090Z,1.10
2022-08-02T12:18:41.170Z,1.20
2022-08-02T12:21:26.510Z,1.08
2022-08-02T12:24:00.116Z,1.00
2022-08-02T12:26:30.064Z,1.00
2022-08-02T12:29:01.587Z,1.40
2022-08-02T12:31:57.530Z,1.13
2022-08-02T12:34:31.586Z,1.08
2022-08-02T12:37:03.741Z,1.10
2022-08-02T12:39:35.168Z,0.98
2022-08-02T12:44:29.878Z,1.52
2022-08-02T12:47:04.158Z,1.48
2022-08-02T12:49:32.451Z,1.02
2022-08-02T12:52:02.255Z,1.10
2022-08-02T12:54:41.446Z,1.10
2022-08-02T12:57:13.748Z,1.33
2022-08-02T12:59:44.511Z,1.08
2022-08-02T13:02:13.518Z,1.10
2022-08-02T13:04:50.407Z,1.00
2022-08-02T13:07:18.878Z,0.70
2022-08-02T13:09:47.635Z,1.00
2022-08-02T13:12:15.048Z,0.70
2022-08-02T13:14:42.905Z,1.05
2022-08-02T13:17:11.457Z,0.90
2022-08-02T13:19:38.896Z,1.42
2022-08-02T13:22:11.501Z,1.27
2022-08-02T13:24:55.868Z,1.52
2022-08-02T13:27:26.638Z,1.58
2022-08-02T13:29:56.581Z,1.15
2022-08-02T13:32:25.267Z,0.90
2022-08-02T13:34:52.402Z,0.98
2022-08-02T13:37:19.744Z,1.00
2022-08-02T13:40:05.509Z,0.85
2022-08-02T13:42:34.682Z,0.60
2022-08-02T13:45:12.045Z,0.93
2022-08-02T13:48:04.089Z,0.80
2022-08-02T13:50:30.281Z,0.70
2022-08-02T13:52:57.365Z,1.05
2022-08-02T13:55:24.404Z,0.82
2022-08-02T13:57:53.638Z,1.10
2022-08-02T14:00:35.513Z,0.85
2022-08-02T14:03:05.848Z,0.80
2022-08-02T14:05:44.721Z,1.38
2022-08-02T14:08:19.695Z,1.35
2022-08-02T14:10:49.108Z,1.35
2022-08-02T14:13:17.093Z,1.25
2022-08-02T14:15:44.957Z,0.80
2022-08-02T14:18:12.729Z,2.03
2022-08-02T14:20:39.797Z,1.08
2022-08-02T14:23:07.008Z,1.30
2022-08-02T14:25:33.991Z,0.90
2022-08-02T14:28:01.018Z,0.98
2022-08-02T14:30:28.444Z,1.30
2022-08-02T14:32:56.616Z,0.80
2022-08-02T14:35:23.742Z,1.35
2022-08-02T14:37:50.839Z,1.00
2022-08-02T14:40:28.156Z,1.10
2022-08-02T14:43:02.596Z,1.27
2022-08-02T14:45:36.624Z,1.10
2022-08-02T14:48:07.741Z,1.00
2022-08-02T14:50:35.715Z,0.80
2022-08-02T14:53:02.757Z,0.85
2022-08-02T14:55:29.854Z,1.05
2022-08-02T14:57:56.937Z,1.00
2022-08-02T15:00:23.942Z,1.10
2022-08-02T15:02:51.119Z,1.02
2022-08-02T15:05:18.118Z,0.70
2022-08-02T15:07:49.370Z,1.08
2022-08-02T15:12:46.088Z,1.40
2022-08-02T15:15:13.292Z,1.55
2022-08-02T15:17:40.472Z,1.13
2022-08-02T15:20:25.195Z,0.80
2022-08-02T15:22:53.247Z,1.10
2022-08-02T15:25:21.481Z,1.08
2022-08-02T15:27:48.713Z,0.70
2022-08-02T15:30:15.881Z,0.90
2022-08-02T15:32:53.346Z,0.93
2022-08-02T15:35:21.457Z,0.65
2022-08-02T15:37:48.439Z,3.85
2022-08-02T15:40:15.516Z,1.00
2022-08-02T15:42:43.820Z,1.05
2022-08-02T15:45:15.653Z,0.90
2022-08-02T15:47:48.118Z,0.88
2022-08-02T15:50:18.633Z,0.85
2022-08-02T15:52:45.789Z,0.75
2022-08-02T15:55:13.619Z,0.98
2022-08-02T15:57:41.952Z,0.90
2022-08-02T16:00:18.134Z,0.80
2022-08-02T16:02:47.837Z,1.00
2022-08-02T16:05:18.073Z,12.60
2022-08-02T16:07:46.486Z,2.38
2022-08-02T16:10:15.074Z,1.58
2022-08-02T16:12:42.205Z,2.70
2022-08-02T16:15:09.673Z,1.45
2022-08-02T16:17:53.796Z,1.30
2022-08-02T16:20:23.266Z,1.05
2022-08-02T16:22:50.359Z,1.50
2022-08-02T16:25:17.683Z,1.40
2022-08-02T16:27:57.560Z,1.10
2022-08-02T16:30:32.307Z,1.25
2022-08-02T16:32:59.370Z,1.00
2022-08-02T16:35:28.125Z,1.42
2022-08-02T16:37:55.131Z,0.90
2022-08-02T16:40:22.489Z,1.25
2022-08-02T16:42:50.537Z,0.80
2022-08-02T16:45:22.594Z,4.28
2022-08-02T16:47:55.102Z,1.27
2022-08-02T16:50:27.140Z,0.98
2022-08-02T16:52:58.353Z,1.80
2022-08-02T16:55:26.319Z,1.38
2022-08-02T16:57:58.578Z,1.15
2022-08-02T17:00:26.209Z,1.05
2022-08-02T17:02:54.760Z,1.00
2022-08-02T17:05:29.829Z,1.15
2022-08-02T17:08:07.954Z,1.00
2022-08-02T17:10:43.841Z,1.40
2022-08-02T17:16:17.059Z,1.10
2022-08-02T17:18:47.104Z,1.60
2022-08-02T17:21:18.247Z,1.10
2022-08-02T17:24:02.834Z,1.40
2022-08-02T17:26:32.644Z,1.05
2022-08-02T17:29:16.503Z,1.20
2022-08-02T17:32:05.259Z,2.80
2022-08-02T17:34:34.219Z,2.38
2022-08-02T17:37:01.366Z,2.15
2022-08-02T17:39:33.543Z,1.80
2022-08-02T17:42:02.775Z,1.20
2022-08-02T17:44:37.465Z,1.35
2022-08-02T17:47:11.846Z,2.03
2022-08-02T17:49:43.939Z,1.63
2022-08-02T17:52:48.207Z,1.30
2022-08-02T17:54:58.882Z,1.10
2022-08-02T17:57:56.280Z,1.58
2022-08-02T18:00:13.991Z,1.20
2022-08-02T18:02:41.919Z,1.20
2022-08-02T18:05:13.261Z,1.10
2022-08-02T18:07:53.036Z,1.60
2022-08-02T18:10:23.783Z,1.50
2022-08-02T18:12:53.419Z,1.17
2022-08-02T18:15:23.285Z,1.38
2022-08-02T18:17:51.260Z,1.30
2022-08-02T18:20:34.772Z,1.10
2022-08-02T18:23:02.570Z,1.58
2022-08-02T18:25:37.342Z,1.40
2022-08-02T18:28:11.398Z,2.15
2022-08-02T18:30:39.119Z,1.50
2022-08-02T18:33:58.786Z,1.42
2022-08-02T18:35:55.354Z,1.50
2022-08-02T18:38:28.377Z,1.30
2022-08-02T18:40:55.813Z,1.23
2022-08-02T18:43:25.037Z,1.50
2022-08-02T18:46:05.902Z,1.90
2022-08-02T18:51:03.243Z,2.00
2022-08-02T18:53:41.748Z,1.85
2022-08-02T18:56:20.418Z,2.70
2022-08-02T19:01:34.033Z,4.00
2022-08-02T19:04:04.624Z,4.03
2022-08-02T19:06:32.764Z,6.15
2022-08-02T19:11:48.228Z,5.65
2022-08-02T19:14:27.641Z,4.82
2022-08-02T19:16:57.878Z,5.38
2022-08-02T19:22:26.805Z,5.80
2022-08-02T19:25:01.009Z,7.55
2022-08-02T19:27:32.508Z,8.48
2022-08-02T19:30:07.598Z,8.50
2022-08-02T19:32:42.754Z,10.07
2022-08-02T19:35:30.467Z,8.43
2022-08-02T19:38:08.772Z,7.65
2022-08-02T19:40:36.726Z,8.30
2022-08-02T19:44:25.691Z,7.70
2022-08-02T19:45:57.141Z,6.32
2022-08-02T19:48:27.241Z,8.05
2022-08-02T19:51:00.978Z,7.00
2022-08-02T19:53:48.223Z,6.57
2022-08-02T19:56:25.523Z,7.28
2022-08-02T19:58:54.758Z,7.30
2022-08-02T20:01:36.920Z,7.03
2022-08-02T20:04:07.491Z,7.05
2022-08-02T20:06:42.819Z,7.03
2022-08-02T20:09:21.405Z,8.63
2022-08-02T20:12:05.898Z,8.52
2022-08-02T20:14:33.048Z,8.38
2022-08-02T20:17:00.974Z,8.38
2022-08-02T20:22:15.984Z,9.05
2022-08-02T20:24:43.519Z,10.27
2022-08-02T20:27:17.030Z,9.75
2022-08-02T20:29:51.039Z,9.25
2022-08-02T20:32:24.353Z,9.70
2022-08-02T20:34:52.841Z,9.63
2022-08-02T20:38:00.257Z,7.35
2022-08-02T20:40:08.615Z,7.85
2022-08-02T20:42:35.690Z,6.55
2022-08-02T20:45:04.861Z,6.90
2022-08-02T20:50:38.150Z,6.13
2022-08-02T20:53:06.865Z,5.82
2022-08-02T20:55:35.784Z,6.65
2022-08-02T20:58:04.548Z,6.35
2022-08-02T21:00:35.018Z,5.68
2022-08-02T21:03:04.537Z,5.35
2022-08-02T21:05:43.540Z,5.03
2022-08-02T21:08:21.358Z,5.95
2022-08-02T21:10:51.769Z,5.53
2022-08-02T21:13:25.898Z,4.38
2022-08-02T21:15:55.130Z,4.85
2022-08-02T21:18:30.126Z,4.70
2022-08-02T21:21:06.591Z,6.15
2022-08-02T21:23:36.908Z,5.95
2022-08-02T21:26:06.706Z,7.18
2022-08-02T21:31:22.991Z,6.75
2022-08-02T21:36:38.418Z,5.53
2022-08-02T21:39:14.123Z,5.88
2022-08-02T21:44:31.632Z,5.00
2022-08-02T21:46:58.874Z,5.13
2022-08-02T21:50:09.812Z,5.75
2022-08-02T21:52:25.990Z,4.93
2022-08-02T21:54:56.819Z,4.82
2022-08-02T21:57:26.990Z,3.90
2022-08-02T22:00:11.330Z,4.38
2022-08-02T22:02:41.546Z,5.05
2022-08-02T22:05:15.891Z,6.00
2022-08-02T22:07:45.820Z,5.30
2022-08-02T22:10:16.029Z,5.03
2022-08-02T22:12:53.580Z,4.63
2022-08-02T22:15:25.874Z,4.95
2022-08-02T22:18:06.694Z,5.30
2022-08-02T22:21:01.871Z,4.78
2022-08-02T22:23:50.267Z,5.25
2022-08-02T22:26:18.978Z,4.70
2022-08-02T22:28:51.032Z,4.63
2022-08-02T22:31:40.342Z,4.35
2022-08-02T22:34:26.734Z,4.88
2022-08-02T22:36:55.463Z,5.13
2022-08-02T22:39:22.568Z,4.43
2022-08-02T22:42:05.365Z,5.20
2022-08-02T22:44:35.659Z,4.32
2022-08-02T22:47:07.237Z,5.03
2022-08-02T22:49:51.863Z,5.50
2022-08-02T22:52:23.268Z,4.85
2022-08-02T22:54:51.127Z,6.32
2022-08-02T22:57:29.919Z,5.43
2022-08-02T22:58:47.003Z,5.95
2022-08-02T22:58:49.679Z,1.20
2022-08-02T22:58:55.200Z,8.68
2022-08-02T22:58:56.233Z,7.10
2022-08-02T22:58:57.369Z,6.60
2022-08-02T22:59:03.343Z,5.32
2022-08-02T22:59:12.330Z,5.95
2022-08-02T22:59:57.290Z,5.15
2022-08-02T23:02:25.085Z,5.15
2022-08-02T23:04:52.721Z,5.45
2022-08-02T23:07:19.795Z,4.55
2022-08-02T23:09:46.899Z,4.32
2022-08-02T23:12:19.064Z,3.97
2022-08-02T23:14:51.219Z,4.05
2022-08-02T23:17:38.412Z,3.88
2022-08-02T23:20:07.303Z,3.88
2022-08-02T23:22:34.392Z,3.72
2022-08-02T23:25:03.580Z,4.05
2022-08-02T23:27:32.170Z,3.97
2022-08-02T23:30:00.928Z,3.75
2022-08-02T23:32:28.491Z,3.83
2022-08-02T23:34:57.410Z,3.80
2022-08-02T23:37:24.943Z,4.28
2022-08-02T23:39:52.409Z,3.75
2022-08-02T23:42:37.984Z,4.18
2022-08-02T23:45:05.396Z,4.30
2022-08-02T23:47:32.381Z,4.90
2022-08-02T23:49:59.350Z,4.50
2022-08-02T23:52:26.387Z,5.15
2022-08-02T23:54:53.375Z,5.40
2022-08-02T23:57:21.657Z,4.82
2022-08-02T23:59:52.180Z,5.22
